Baltimore, Maryland
Traffic Map
Current Weather Conditions
Baltimore, Maryland
Overcast
Overcast
56°
Feels Like: 56°
Wind Chill: 56° Ceiling: 4600
Heat Index: 56° Visibility: 10mi
Dew Point: 47° Wind: 3mph
Humidity: 72% Direction: 190° (S)
Pressure: 30.2in Gusts: 0mph
Raw Report DataKBWI 302354Z 19003KT 10SM BKN046 OVC120 13/08 A3020 RMK AO2 SLP226 60000 T01330083 10144 20133 51005
Traffic Incident Summary
Active as of:
Severity:
Category:
InformationThere was an issue retrieving the traffic information for this location. Please try a different location or try again shortly.
Advertisements
Track Severe Weather on mobile